createdAt,value
2018-06-21T00:00:48.583Z,5.90
2018-06-21T00:03:19.277Z,6.40
2018-06-21T00:05:49.928Z,6.40
2018-06-21T00:08:20.606Z,6.90
2018-06-21T00:10:51.718Z,5.80
2018-06-21T00:13:22.345Z,6.15
2018-06-21T00:15:52.992Z,6.42
2018-06-21T00:18:23.988Z,6.15
2018-06-21T00:20:54.703Z,5.60
2018-06-21T00:23:25.889Z,5.87
2018-06-21T00:25:56.580Z,5.67
2018-06-21T00:28:27.272Z,5.60
2018-06-21T00:30:57.867Z,6.37
2018-06-21T00:33:28.656Z,5.70
2018-06-21T00:35:59.338Z,6.45
2018-06-21T00:38:30.035Z,5.08
2018-06-21T00:41:00.602Z,5.83
2018-06-21T00:43:32.219Z,5.67
2018-06-21T00:46:04.215Z,5.75
2018-06-21T00:48:34.840Z,6.10
2018-06-21T00:51:05.434Z,5.83
2018-06-21T00:53:38.991Z,5.60
2018-06-21T00:56:21.070Z,6.12
2018-06-21T00:58:51.627Z,5.50
2018-06-21T01:01:22.413Z,6.45
2018-06-21T01:03:53.162Z,6.95
2018-06-21T01:06:23.773Z,7.22
2018-06-21T01:08:54.966Z,7.28
2018-06-21T01:11:25.542Z,7.50
2018-06-21T01:13:56.212Z,7.47
2018-06-21T01:16:27.020Z,8.90
2018-06-21T01:18:57.983Z,8.15
2018-06-21T01:21:31.213Z,8.10
2018-06-21T01:24:01.975Z,11.30
2018-06-21T01:26:33.994Z,11.80
2018-06-21T01:29:05.230Z,9.30
2018-06-21T01:31:36.565Z,7.72
2018-06-21T01:34:07.780Z,7.30
2018-06-21T01:36:42.038Z,9.43
2018-06-21T01:39:13.104Z,9.03
2018-06-21T01:41:43.991Z,9.20
2018-06-21T01:44:14.542Z,12.50
2018-06-21T01:46:45.099Z,12.33
2018-06-21T01:49:15.758Z,12.20
2018-06-21T01:51:46.408Z,10.45
2018-06-21T01:54:17.094Z,11.97
2018-06-21T01:56:47.672Z,10.43
2018-06-21T01:59:18.261Z,8.15
2018-06-21T02:01:48.839Z,8.88
2018-06-21T02:04:19.818Z,8.25
2018-06-21T02:06:50.556Z,8.15
2018-06-21T02:09:21.105Z,7.72
2018-06-21T02:11:52.547Z,7.42
2018-06-21T02:14:23.855Z,7.12
2018-06-21T02:16:54.597Z,7.65
2018-06-21T02:19:25.211Z,7.75
2018-06-21T02:21:55.910Z,7.42
2018-06-21T02:24:27.434Z,7.10
2018-06-21T02:26:57.968Z,6.28
2018-06-21T02:29:28.598Z,6.62
2018-06-21T02:31:59.573Z,7.47
2018-06-21T02:34:30.057Z,7.17
2018-06-21T02:37:00.452Z,6.60
2018-06-21T02:39:30.954Z,7.22
2018-06-21T02:42:01.675Z,6.97
2018-06-21T02:44:31.972Z,7.40
2018-06-21T02:47:02.903Z,7.12
2018-06-21T02:49:33.493Z,6.55
2018-06-21T02:52:04.070Z,6.47
2018-06-21T02:54:35.295Z,7.35
2018-06-21T02:57:05.820Z,7.25
2018-06-21T02:59:36.582Z,7.67
2018-06-21T03:02:07.320Z,7.37
2018-06-21T03:04:38.098Z,6.85
2018-06-21T03:07:08.830Z,6.62
2018-06-21T03:09:40.713Z,6.45
2018-06-21T03:12:16.537Z,6.65
2018-06-21T03:14:47.527Z,7.28
2018-06-21T03:17:18.172Z,6.80
2018-06-21T03:19:48.755Z,6.33
2018-06-21T03:22:19.511Z,7.00
2018-06-21T03:27:38.436Z,6.45
2018-06-21T03:33:26.711Z,7.22
2018-06-21T03:35:57.415Z,6.87
2018-06-21T03:38:27.862Z,5.90
2018-06-21T03:40:59.587Z,6.62
2018-06-21T03:43:30.187Z,6.53
2018-06-21T03:46:00.859Z,6.85
2018-06-21T03:48:32.475Z,6.53
2018-06-21T03:51:03.040Z,6.50
2018-06-21T03:53:34.712Z,6.50
2018-06-21T03:56:05.502Z,6.30
2018-06-21T03:58:36.850Z,7.50
2018-06-21T04:01:07.374Z,6.70
2018-06-21T04:03:37.847Z,7.50
2018-06-21T04:06:08.371Z,6.80
2018-06-21T04:08:38.916Z,7.08
2018-06-21T04:11:09.479Z,6.50
2018-06-21T04:13:40.096Z,7.58
2018-06-21T04:16:10.589Z,7.35
2018-06-21T04:18:41.140Z,7.65
2018-06-21T04:21:11.596Z,6.92
2018-06-21T04:23:42.242Z,8.25
2018-06-21T04:26:12.407Z,7.22
2018-06-21T04:28:43.319Z,7.45
2018-06-21T04:31:14.095Z,7.55
2018-06-21T04:33:45.286Z,7.00
2018-06-21T04:36:15.756Z,6.55
2018-06-21T04:38:46.309Z,7.12
2018-06-21T04:41:17.378Z,6.45
2018-06-21T04:43:47.893Z,7.12
2018-06-21T04:46:18.425Z,6.25
2018-06-21T04:48:49.604Z,7.03
2018-06-21T04:51:23.601Z,6.70
2018-06-21T04:57:34.128Z,6.30
2018-06-21T05:00:30.624Z,5.62
2018-06-21T05:04:02.109Z,6.45
2018-06-21T05:11:25.742Z,6.08
2018-06-21T05:13:56.280Z,5.20
2018-06-21T05:16:26.544Z,6.10
2018-06-21T05:18:57.005Z,6.10
2018-06-21T05:21:27.694Z,6.15
2018-06-21T05:23:58.163Z,6.58
2018-06-21T05:26:28.713Z,6.20
2018-06-21T05:28:59.781Z,6.53
2018-06-21T05:31:30.477Z,6.65
2018-06-21T05:34:01.307Z,5.73
2018-06-21T05:36:31.833Z,6.10
2018-06-21T05:39:02.417Z,5.40
2018-06-21T05:41:32.920Z,6.10
2018-06-21T05:44:03.575Z,6.30
2018-06-21T05:46:34.189Z,5.97
2018-06-21T05:49:04.434Z,6.37
2018-06-21T05:51:34.814Z,5.70
2018-06-21T05:54:05.325Z,6.07
2018-06-21T05:56:35.942Z,5.80
2018-06-21T05:59:06.547Z,5.65
2018-06-21T06:01:37.150Z,5.45
2018-06-21T06:04:07.759Z,5.67
2018-06-21T06:06:38.292Z,4.80
2018-06-21T06:09:11.061Z,6.23
2018-06-21T06:11:41.572Z,5.97
2018-06-21T06:14:12.146Z,6.03
2018-06-21T06:16:42.621Z,5.40
2018-06-21T06:19:13.128Z,4.97
2018-06-21T06:21:43.620Z,4.70
2018-06-21T06:24:14.149Z,5.10
2018-06-21T06:26:44.778Z,3.63
2018-06-21T06:29:15.333Z,3.57
2018-06-21T06:31:45.825Z,3.60
2018-06-21T06:34:16.298Z,3.40
2018-06-21T06:36:46.489Z,3.57
2018-06-21T06:39:17.969Z,3.53
2018-06-21T06:41:50.227Z,3.20
2018-06-21T06:44:20.804Z,3.20
2018-06-21T06:46:51.315Z,3.20
2018-06-21T06:49:22.126Z,4.00
2018-06-21T06:51:52.530Z,3.50
2018-06-21T06:54:23.104Z,3.10
2018-06-21T06:56:53.615Z,3.13
2018-06-21T06:59:24.023Z,3.30
2018-06-21T07:01:54.461Z,2.70
2018-06-21T07:04:25.153Z,3.27
2018-06-21T07:06:55.900Z,2.53
2018-06-21T07:09:27.383Z,2.70
2018-06-21T07:11:57.850Z,2.90
2018-06-21T07:14:28.545Z,2.47
2018-06-21T07:16:59.572Z,2.93
2018-06-21T07:19:30.244Z,3.50
2018-06-21T07:22:01.181Z,2.57
2018-06-21T07:24:31.559Z,2.83
2018-06-21T07:27:02.093Z,2.67
2018-06-21T07:29:32.600Z,3.20
2018-06-21T07:32:03.068Z,2.60
2018-06-21T07:34:33.509Z,2.67
2018-06-21T07:37:03.653Z,2.70
2018-06-21T07:39:33.896Z,2.20
2018-06-21T07:42:04.469Z,3.27
2018-06-21T07:44:34.982Z,2.50
2018-06-21T07:47:05.398Z,2.37
2018-06-21T07:49:37.556Z,2.60
2018-06-21T07:52:08.049Z,2.27
2018-06-21T07:54:39.067Z,2.70
2018-06-21T07:57:09.487Z,2.33
2018-06-21T07:59:39.942Z,2.23
2018-06-21T08:02:10.874Z,2.80
2018-06-21T08:04:42.237Z,2.37
2018-06-21T08:07:12.678Z,2.60
2018-06-21T08:09:43.021Z,2.60
2018-06-21T08:12:13.448Z,2.80
2018-06-21T08:14:43.972Z,2.80
2018-06-21T08:17:14.347Z,2.80
2018-06-21T08:19:44.758Z,3.80
2018-06-21T08:22:15.172Z,3.20
2018-06-21T08:24:45.637Z,3.20
2018-06-21T08:27:16.028Z,3.03
2018-06-21T08:29:46.488Z,3.83
2018-06-21T08:32:16.893Z,3.63
2018-06-21T08:34:47.321Z,4.43
2018-06-21T08:37:17.787Z,3.43
2018-06-21T08:39:48.213Z,3.80
2018-06-21T08:42:18.759Z,3.90
2018-06-21T08:44:49.246Z,3.80
2018-06-21T08:47:19.713Z,3.60
2018-06-21T08:49:50.090Z,3.50
2018-06-21T08:52:20.654Z,3.40
2018-06-21T08:54:50.995Z,3.43
2018-06-21T08:57:21.489Z,3.70
2018-06-21T08:59:51.960Z,4.10
2018-06-21T09:02:22.463Z,3.10
2018-06-21T09:04:52.965Z,4.30
2018-06-21T09:07:23.331Z,3.70
2018-06-21T09:09:53.714Z,3.83
2018-06-21T09:12:24.212Z,3.90
2018-06-21T09:14:54.661Z,3.63
2018-06-21T09:17:25.172Z,4.17
2018-06-21T09:19:55.628Z,4.10
2018-06-21T09:22:26.064Z,4.53
2018-06-21T09:24:56.932Z,4.20
2018-06-21T09:27:27.484Z,4.10
2018-06-21T09:29:58.335Z,4.30
2018-06-21T09:32:30.365Z,3.90
2018-06-21T09:35:00.893Z,3.67
2018-06-21T09:37:36.546Z,3.93
2018-06-21T09:40:12.464Z,4.00
2018-06-21T09:42:48.066Z,4.40
2018-06-21T09:45:23.670Z,4.37
2018-06-21T09:47:59.414Z,4.50
2018-06-21T09:50:29.833Z,4.33
2018-06-21T09:53:00.380Z,5.10
2018-06-21T09:55:30.897Z,4.70
2018-06-21T09:58:01.457Z,4.10
2018-06-21T10:00:37.121Z,4.50
2018-06-21T10:03:07.634Z,4.50
2018-06-21T10:05:38.788Z,4.60
2018-06-21T10:08:09.221Z,4.47
2018-06-21T10:10:39.667Z,4.70
2018-06-21T10:13:10.151Z,5.27
2018-06-21T10:15:40.781Z,4.70
2018-06-21T10:18:11.316Z,4.57
2018-06-21T10:20:41.805Z,4.70
2018-06-21T10:23:12.444Z,4.90
2018-06-21T10:25:42.884Z,4.47
2018-06-21T10:28:13.904Z,3.93
2018-06-21T10:30:44.369Z,4.03
2018-06-21T10:33:14.801Z,4.60
2018-06-21T10:35:45.322Z,4.30
2018-06-21T10:38:15.758Z,4.30
2018-06-21T10:40:50.650Z,4.77
2018-06-21T10:43:21.533Z,4.50
2018-06-21T10:45:52.049Z,4.40
2018-06-21T10:48:22.592Z,5.10
2018-06-21T10:50:53.056Z,4.23
2018-06-21T10:53:23.416Z,4.23
2018-06-21T10:55:53.994Z,4.23
2018-06-21T10:58:25.477Z,4.30
2018-06-21T11:00:55.965Z,4.53
2018-06-21T11:03:26.997Z,4.63
2018-06-21T11:05:59.506Z,4.63
2018-06-21T11:08:29.993Z,4.57
2018-06-21T11:11:00.522Z,4.63
2018-06-21T11:13:30.965Z,4.97
2018-06-21T11:16:01.399Z,5.30
2018-06-21T11:18:31.888Z,4.60
2018-06-21T11:21:02.573Z,4.37
2018-06-21T11:23:33.860Z,4.80
2018-06-21T11:26:04.317Z,5.00
2018-06-21T11:28:34.863Z,4.90
2018-06-21T11:31:05.606Z,4.00
2018-06-21T11:33:36.091Z,4.90
2018-06-21T11:36:06.754Z,4.20
2018-06-21T11:38:37.334Z,4.37
2018-06-21T11:41:07.882Z,4.00
2018-06-21T11:43:38.388Z,4.20
2018-06-21T11:46:08.769Z,4.20
2018-06-21T11:48:39.281Z,4.20
2018-06-21T11:51:09.801Z,5.00
2018-06-21T11:53:40.321Z,4.10
2018-06-21T11:56:10.763Z,4.37
2018-06-21T11:58:41.321Z,4.37
2018-06-21T12:01:11.717Z,4.10
2018-06-21T12:03:43.137Z,3.70
2018-06-21T12:06:13.789Z,3.60
2018-06-21T12:08:44.289Z,4.07
2018-06-21T12:11:14.913Z,3.97
2018-06-21T12:13:45.440Z,3.30
2018-06-21T12:16:15.924Z,3.47
2018-06-21T12:18:46.455Z,4.10
2018-06-21T12:21:16.980Z,4.20
2018-06-21T12:23:47.610Z,3.93
2018-06-21T12:26:19.199Z,4.07
2018-06-21T12:28:49.787Z,3.70
2018-06-21T12:31:20.214Z,3.93
2018-06-21T12:33:50.765Z,4.57
2018-06-21T12:36:21.436Z,4.57
2018-06-21T12:38:52.625Z,3.50
2018-06-21T12:41:23.102Z,3.20
2018-06-21T12:43:53.597Z,4.40
2018-06-21T12:46:24.043Z,3.40
2018-06-21T12:48:54.518Z,3.50
2018-06-21T12:51:25.279Z,3.40
2018-06-21T12:53:55.637Z,4.10
2018-06-21T12:56:26.076Z,3.30
2018-06-21T12:58:56.516Z,3.40
2018-06-21T13:01:26.972Z,2.80
2018-06-21T13:03:57.467Z,3.33
2018-06-21T13:06:27.874Z,3.10
2018-06-21T13:09:15.113Z,3.37
2018-06-21T13:13:05.936Z,3.20
2018-06-21T13:15:36.416Z,3.40
2018-06-21T13:18:07.001Z,3.10
2018-06-21T13:20:37.617Z,3.43
2018-06-21T13:23:07.992Z,3.23
2018-06-21T13:25:39.351Z,3.47
2018-06-21T13:28:09.759Z,3.53
2018-06-21T13:30:40.807Z,2.77
2018-06-21T13:33:11.443Z,2.87
2018-06-21T13:35:42.010Z,3.03
2018-06-21T13:38:12.525Z,3.00
2018-06-21T13:40:43.051Z,2.87
2018-06-21T13:43:13.553Z,2.23
2018-06-21T13:45:43.943Z,2.90
2018-06-21T13:48:14.384Z,2.37
2018-06-21T13:50:44.892Z,2.23
2018-06-21T13:53:15.770Z,2.20
2018-06-21T13:55:46.252Z,2.63
2018-06-21T13:58:16.839Z,2.23
2018-06-21T14:00:47.426Z,2.23
2018-06-21T14:03:18.285Z,2.25
2018-06-21T14:05:48.604Z,2.58
2018-06-21T14:08:19.375Z,2.80
2018-06-21T14:10:49.709Z,2.92
2018-06-21T14:13:20.502Z,2.90
2018-06-21T14:15:51.232Z,3.17
2018-06-21T14:18:21.504Z,3.58
2018-06-21T14:20:52.029Z,2.80
2018-06-21T14:23:22.536Z,2.80
2018-06-21T14:25:53.079Z,3.12
2018-06-21T14:28:23.655Z,3.20
2018-06-21T14:30:54.153Z,2.98
2018-06-21T14:33:24.650Z,4.05
2018-06-21T14:35:55.148Z,3.40
2018-06-21T14:38:25.805Z,2.80
2018-06-21T14:40:56.612Z,3.30
2018-06-21T14:43:27.887Z,3.33
2018-06-21T14:45:58.143Z,2.90
2018-06-21T14:48:28.426Z,2.98
2018-06-21T14:50:59.093Z,2.90
2018-06-21T14:53:29.653Z,2.72
2018-06-21T14:56:00.308Z,2.77
2018-06-21T14:58:30.935Z,3.40
2018-06-21T15:01:01.693Z,2.90
2018-06-21T15:03:32.260Z,2.95
2018-06-21T15:06:02.832Z,3.33
2018-06-21T15:08:34.157Z,3.15
2018-06-21T15:11:04.960Z,2.95
2018-06-21T15:13:35.629Z,3.22
2018-06-21T15:16:06.240Z,3.15
2018-06-21T15:18:36.766Z,3.35
2018-06-21T15:21:08.054Z,2.80
2018-06-21T15:23:38.479Z,2.80
2018-06-21T15:26:09.081Z,2.90
2018-06-21T15:28:39.824Z,2.70
2018-06-21T15:31:11.064Z,3.35
2018-06-21T15:33:41.652Z,2.90
2018-06-21T15:36:11.932Z,2.40
2018-06-21T15:38:42.550Z,3.30
2018-06-21T15:41:14.069Z,2.77
2018-06-21T15:43:44.589Z,3.10
2018-06-21T15:46:15.213Z,2.90
2018-06-21T15:48:45.991Z,2.70
2018-06-21T15:51:20.359Z,2.95
2018-06-21T15:53:51.914Z,2.80
2018-06-21T15:56:22.530Z,3.05
2018-06-21T15:58:53.114Z,2.75
2018-06-21T16:01:24.064Z,2.80
2018-06-21T16:03:54.681Z,3.15
2018-06-21T16:06:25.230Z,3.10
2018-06-21T16:08:55.840Z,2.85
2018-06-21T16:11:26.480Z,2.50
2018-06-21T16:13:57.015Z,2.50
2018-06-21T16:16:27.425Z,2.67
2018-06-21T16:18:57.943Z,2.95
2018-06-21T16:21:28.385Z,2.98
2018-06-21T16:23:58.829Z,2.90
2018-06-21T16:26:29.331Z,1.85
2018-06-21T16:29:01.330Z,3.27
2018-06-21T16:31:31.716Z,2.90
2018-06-21T16:34:02.171Z,3.05
2018-06-21T16:36:32.622Z,3.52
2018-06-21T16:39:03.021Z,3.00
2018-06-21T16:41:33.430Z,2.87
2018-06-21T16:44:03.911Z,2.95
2018-06-21T16:46:34.466Z,2.95
2018-06-21T16:49:04.925Z,3.40
2018-06-21T16:51:35.403Z,3.50
2018-06-21T16:54:05.924Z,3.20
2018-06-21T16:56:36.413Z,3.50
2018-06-21T16:59:06.886Z,3.05
2018-06-21T17:01:37.443Z,4.25
2018-06-21T17:04:07.918Z,4.00
2018-06-21T17:06:38.279Z,4.05
2018-06-21T17:09:10.001Z,3.80
2018-06-21T17:11:41.596Z,3.98
2018-06-21T17:14:11.972Z,4.25
2018-06-21T17:16:42.361Z,3.80
2018-06-21T17:19:13.391Z,3.52
2018-06-21T17:21:43.962Z,3.95
2018-06-21T17:24:14.359Z,3.00
2018-06-21T17:26:44.584Z,3.55
2018-06-21T17:29:14.864Z,2.95
2018-06-21T17:31:45.456Z,2.72
2018-06-21T17:34:15.946Z,3.12
2018-06-21T17:36:46.671Z,3.00
2018-06-21T17:39:16.888Z,3.12
2018-06-21T17:41:47.380Z,3.15
2018-06-21T17:44:17.773Z,2.90
2018-06-21T17:46:48.170Z,2.62
2018-06-21T17:49:18.614Z,2.95
2018-06-21T17:51:49.961Z,3.20
2018-06-21T17:54:20.406Z,2.95
2018-06-21T17:56:50.870Z,2.77
2018-06-21T17:59:21.635Z,2.75
2018-06-21T18:01:52.123Z,2.70
2018-06-21T18:04:22.602Z,3.12
2018-06-21T18:06:53.034Z,2.65
2018-06-21T18:09:23.492Z,2.50
2018-06-21T18:11:53.991Z,2.47
2018-06-21T18:14:24.382Z,2.65
2018-06-21T18:16:55.034Z,2.50
2018-06-21T18:19:25.483Z,2.72
2018-06-21T18:21:55.899Z,2.33
2018-06-21T18:24:26.418Z,2.55
2018-06-21T18:26:56.920Z,2.10
2018-06-21T18:29:27.513Z,1.77
2018-06-21T18:31:58.246Z,2.47
2018-06-21T18:34:28.722Z,2.42
2018-06-21T18:36:59.240Z,2.00
2018-06-21T18:39:29.712Z,2.33
2018-06-21T18:42:00.245Z,2.17
2018-06-21T18:44:30.786Z,2.05
2018-06-21T18:47:01.384Z,2.17
2018-06-21T18:49:31.875Z,2.10
2018-06-21T18:52:02.480Z,2.45
2018-06-21T18:54:32.944Z,2.58
2018-06-21T18:57:03.745Z,2.25
2018-06-21T18:59:34.161Z,2.10
2018-06-21T19:02:05.603Z,1.67
2018-06-21T19:04:36.633Z,2.25
2018-06-21T19:07:13.063Z,2.22
2018-06-21T19:09:49.180Z,2.25
2018-06-21T19:12:19.451Z,1.98
2018-06-21T19:14:51.009Z,2.15
2018-06-21T19:17:21.736Z,3.00
2018-06-21T19:19:52.380Z,2.37
2018-06-21T19:22:23.137Z,2.77
2018-06-21T19:24:54.617Z,1.90
2018-06-21T19:27:25.036Z,1.87
2018-06-21T19:29:55.823Z,1.90
2018-06-21T19:32:26.281Z,2.02
2018-06-21T19:34:56.759Z,3.27
2018-06-21T19:37:27.243Z,2.20
2018-06-21T19:39:57.658Z,2.20
2018-06-21T19:42:28.027Z,2.52
2018-06-21T19:44:58.483Z,2.15
2018-06-21T19:47:29.258Z,2.33
2018-06-21T19:49:59.709Z,2.08
2018-06-21T19:52:30.190Z,2.27
2018-06-21T19:55:00.617Z,1.92
2018-06-21T19:57:31.103Z,2.05
2018-06-21T20:00:02.860Z,3.35
2018-06-21T20:02:38.397Z,2.58
2018-06-21T20:05:08.906Z,1.87
2018-06-21T20:07:39.384Z,2.83
2018-06-21T20:10:09.908Z,2.10
2018-06-21T20:12:40.653Z,1.75
2018-06-21T20:15:11.055Z,2.60
2018-06-21T20:17:41.517Z,2.30
2018-06-21T20:20:18.329Z,2.27
2018-06-21T20:22:50.304Z,2.00
2018-06-21T20:25:21.097Z,2.40
2018-06-21T20:27:51.834Z,1.98
2018-06-21T20:30:22.578Z,1.90
2018-06-21T20:32:53.106Z,2.17
2018-06-21T20:35:23.797Z,2.25
2018-06-21T20:37:54.302Z,1.92
2018-06-21T20:40:24.769Z,2.40
2018-06-21T20:42:55.380Z,2.83
2018-06-21T20:45:25.845Z,1.70
2018-06-21T20:47:57.041Z,2.52
2018-06-21T20:50:27.865Z,2.05
2018-06-21T20:52:58.583Z,2.02
2018-06-21T20:55:29.461Z,2.30
2018-06-21T20:58:00.040Z,2.83
2018-06-21T21:00:30.703Z,1.92
2018-06-21T21:03:01.901Z,1.87
2018-06-21T21:05:32.925Z,2.75
2018-06-21T21:08:03.363Z,2.30
2018-06-21T21:10:33.718Z,2.25
2018-06-21T21:13:04.173Z,1.95
2018-06-21T21:15:35.115Z,2.00
2018-06-21T21:18:05.669Z,2.55
2018-06-21T21:20:36.671Z,2.85
2018-06-21T21:23:06.886Z,2.20
2018-06-21T21:25:37.228Z,2.50
2018-06-21T21:28:07.622Z,2.45
2018-06-21T21:30:38.366Z,2.20
2018-06-21T21:33:08.794Z,2.45
2018-06-21T21:35:39.192Z,2.60
2018-06-21T21:38:09.611Z,2.95
2018-06-21T21:40:40.038Z,2.50
2018-06-21T21:43:10.654Z,2.22
2018-06-21T21:45:41.213Z,2.08
2018-06-21T21:48:11.612Z,2.70
2018-06-21T21:50:42.100Z,2.75
2018-06-21T21:53:12.432Z,1.90
2018-06-21T21:55:42.937Z,2.15
2018-06-21T21:58:13.457Z,2.30
2018-06-21T22:00:47.563Z,2.45
2018-06-21T22:03:18.144Z,2.10
2018-06-21T22:05:48.568Z,2.42
2018-06-21T22:08:19.056Z,2.67
2018-06-21T22:10:49.786Z,2.45
2018-06-21T22:13:20.256Z,2.20
2018-06-21T22:15:50.676Z,2.27
2018-06-21T22:18:21.724Z,2.12
2018-06-21T22:20:52.211Z,2.25
2018-06-21T22:23:23.004Z,2.02
2018-06-21T22:25:53.392Z,2.25
2018-06-21T22:28:23.798Z,2.12
2018-06-21T22:30:54.165Z,2.10
2018-06-21T22:33:24.593Z,2.08
2018-06-21T22:35:55.044Z,2.22
2018-06-21T22:38:25.531Z,2.30
2018-06-21T22:40:56.433Z,2.20
2018-06-21T22:43:26.834Z,2.27
2018-06-21T22:45:57.265Z,2.10
2018-06-21T22:48:28.552Z,2.70
2018-06-21T22:50:59.043Z,2.20
2018-06-21T22:53:29.442Z,1.90
2018-06-21T22:55:59.811Z,2.45
2018-06-21T22:58:30.188Z,2.27
2018-06-21T23:01:00.631Z,2.27
2018-06-21T23:03:31.927Z,2.25
2018-06-21T23:06:02.476Z,2.75
2018-06-21T23:08:32.871Z,2.25
2018-06-21T23:11:03.402Z,2.30
2018-06-21T23:13:34.097Z,2.20
2018-06-21T23:16:04.641Z,2.75
2018-06-21T23:18:52.108Z,2.00
2018-06-21T23:21:22.471Z,2.25
2018-06-21T23:23:53.142Z,1.80
2018-06-21T23:26:23.561Z,2.60
2018-06-21T23:28:53.998Z,2.50
2018-06-21T23:31:24.453Z,3.05
2018-06-21T23:33:55.056Z,2.30
2018-06-21T23:36:26.060Z,2.12
2018-06-21T23:38:56.452Z,2.20
2018-06-21T23:41:26.789Z,2.50
2018-06-21T23:43:57.263Z,2.77
2018-06-21T23:46:27.843Z,2.40
2018-06-21T23:48:58.311Z,1.90
2018-06-21T23:51:28.877Z,2.15
2018-06-21T23:53:59.367Z,2.17
2018-06-21T23:56:29.922Z,2.45
2018-06-21T23:59:00.382Z,2.55
